createdAt,value
2016-12-27T00:01:13.215Z,83.7
2016-12-27T00:12:33.247Z,83.89
2016-12-27T00:23:51.828Z,84.84
2016-12-27T00:35:11.899Z,85.69
2016-12-27T00:46:30.497Z,85.6
2016-12-27T00:57:49.090Z,85.88
2016-12-27T01:09:08.625Z,86.35
2016-12-27T01:20:28.743Z,86.55
2016-12-27T01:31:47.308Z,86.26
2016-12-27T01:43:05.963Z,86.35
2016-12-27T01:54:24.602Z,86.26
2016-12-27T02:06:15.092Z,86.83
2016-12-27T02:17:33.655Z,86.35
2016-12-27T02:28:52.186Z,86.26
2016-12-27T02:40:10.862Z,86.87
2016-12-27T02:51:29.369Z,87.16
2016-12-27T03:02:49.005Z,87.63
2016-12-27T03:14:07.567Z,88.96
2016-12-27T03:25:27.179Z,90.05
2016-12-27T03:36:45.730Z,92.14
2016-12-27T03:48:05.757Z,94.32
2016-12-27T03:59:24.382Z,94.7
2016-12-27T04:10:42.962Z,95.74
2016-12-27T04:22:01.547Z,95.17
2016-12-27T04:33:19.151Z,96.73
2016-12-27T04:44:37.677Z,97.21
2016-12-27T04:55:56.309Z,97.3
2016-12-27T05:07:14.876Z,98.25
2016-12-27T05:18:33.515Z,98.16
2016-12-27T05:29:51.993Z,98.16
2016-12-27T05:41:12.299Z,97.87
2016-12-27T05:52:32.814Z,98.44
2016-12-27T06:03:51.407Z,98.06
2016-12-27T06:15:09.950Z,98.63
2016-12-27T06:26:28.540Z,98.63
2016-12-27T06:37:47.140Z,99.39
2016-12-27T06:49:05.971Z,99.39
2016-12-27T07:00:24.564Z,99.67
2016-12-27T07:12:16.265Z,99.67
2016-12-27T07:23:36.224Z,99.86
2016-12-27T07:34:54.615Z,99.77
2016-12-27T07:46:13.145Z,99.67
2016-12-27T07:57:31.805Z,99.58
2016-12-27T08:08:50.420Z,99.77
2016-12-27T08:20:09.952Z,99.63
2016-12-27T08:31:28.618Z,99.77
2016-12-27T08:42:47.106Z,99.82
2016-12-27T08:54:07.154Z,99.99
2016-12-27T09:05:25.986Z,99.25
2016-12-27T09:16:45.644Z,98.68
2016-12-27T09:28:05.184Z,98.35
2016-12-27T09:39:24.844Z,98.07
2016-12-27T09:50:43.414Z,97.5
2016-12-27T10:02:03.011Z,97.17
2016-12-27T10:13:21.836Z,96.59
2016-12-27T10:24:41.911Z,96.41
2016-12-27T10:36:00.440Z,96.36
2016-12-27T10:47:17.579Z,95.98
2016-12-27T10:58:36.252Z,95.31
2016-12-27T11:09:56.268Z,95.03
2016-12-27T11:21:18.780Z,94.37
2016-12-27T11:32:43.198Z,93.94
2016-12-27T11:44:02.858Z,93.65
2016-12-27T11:55:21.561Z,92.61
2016-12-27T12:06:40.369Z,93.27
2016-12-27T12:18:00.701Z,92.27
2016-12-27T12:29:20.749Z,91.13
2016-12-27T12:40:39.850Z,91.04
2016-12-27T12:52:00.031Z,91.61
2016-12-27T13:03:17.097Z,90.8
2016-12-27T13:14:35.718Z,90.14
2016-12-27T13:25:53.775Z,89.47
2016-12-27T13:37:13.396Z,89.28
2016-12-27T13:48:31.826Z,89.18
2016-12-27T13:59:53.794Z,88.04
2016-12-27T14:11:47.942Z,88.04
2016-12-27T14:23:08.028Z,88.71
2016-12-27T14:34:32.510Z,89.8
2016-12-27T14:46:27.574Z,91.04
2016-12-27T14:58:56.639Z,91.66
2016-12-27T15:10:21.426Z,92.61
2016-12-27T15:21:45.150Z,93.18
2016-12-27T15:34:12.907Z,94.6
2016-12-27T15:46:38.857Z,95.03
2016-12-27T16:00:10.598Z,94.74
2016-12-27T16:11:30.423Z,95.31
2016-12-27T16:22:49.015Z,94.74
2016-12-27T16:34:09.166Z,96.26
2016-12-27T16:45:28.001Z,96.12
2016-12-27T16:56:48.185Z,96.22
2016-12-27T17:08:08.162Z,97.36
2016-12-27T17:19:26.746Z,97.64
2016-12-27T17:30:45.305Z,98.3
2016-12-27T17:42:03.898Z,98.49
2016-12-27T17:53:21.486Z,98.59
2016-12-27T18:04:40.055Z,99.35
2016-12-27T18:15:58.627Z,99.16
2016-12-27T18:27:17.261Z,99.54
2016-12-27T18:38:35.832Z,99.77
2016-12-27T18:49:55.876Z,99.96
2016-12-27T19:01:14.458Z,99.99
2016-12-27T19:12:32.570Z,99.99
2016-12-27T19:23:50.159Z,99.99
2016-12-27T19:35:07.235Z,99.99
2016-12-27T19:46:24.852Z,99.99
2016-12-27T19:57:43.432Z,99.99
2016-12-27T20:09:00.541Z,99.99
2016-12-27T20:17:30.231Z,99.99
2016-12-27T20:28:48.809Z,99.99
2016-12-27T20:40:07.385Z,99.99
2016-12-27T20:51:26.303Z,99.99
2016-12-27T21:02:44.861Z,99.99
2016-12-27T21:14:01.926Z,99.99
2016-12-27T21:25:19.518Z,99.99
2016-12-27T21:36:37.096Z,99.99
2016-12-27T21:47:54.174Z,99.99
2016-12-27T21:59:12.738Z,99.99
2016-12-27T22:10:29.828Z,99.99
2016-12-27T22:21:46.912Z,99.99
2016-12-27T22:33:04.018Z,99.99
2016-12-27T22:44:21.576Z,99.99
2016-12-27T22:55:40.408Z,99.99
2016-12-27T23:06:57.532Z,99.99
2016-12-27T23:18:16.100Z,99.99
2016-12-27T23:29:34.691Z,99.99
2016-12-27T23:40:52.249Z,99.99
2016-12-27T23:52:10.832Z,99.99
